createdAt,value
2023-01-29T00:01:43.761Z,86.74
2023-01-29T00:04:14.224Z,86.79
2023-01-29T00:06:47.240Z,86.38
2023-01-29T00:09:16.981Z,86.31
2023-01-29T00:11:47.469Z,88.22
2023-01-29T00:14:17.894Z,91.79
2023-01-29T00:16:48.545Z,85.94
2023-01-29T00:19:19.840Z,86.47
2023-01-29T00:21:52.283Z,91.50
2023-01-29T00:24:23.260Z,91.36
2023-01-29T00:26:53.480Z,91.89
2023-01-29T00:29:23.869Z,88.27
2023-01-29T00:31:55.028Z,87.09
2023-01-29T00:34:26.422Z,89.41
2023-01-29T00:37:05.139Z,89.51
2023-01-29T00:39:47.913Z,88.49
2023-01-29T00:42:36.089Z,85.68
2023-01-29T00:45:07.844Z,87.79
2023-01-29T00:47:38.168Z,87.62
2023-01-29T00:50:13.267Z,90.99
2023-01-29T00:52:45.535Z,87.21
2023-01-29T00:55:15.761Z,85.32
2023-01-29T00:57:46.143Z,88.45
2023-01-29T01:00:18.804Z,87.17
2023-01-29T01:03:07.943Z,90.33
2023-01-29T01:05:39.404Z,86.84
2023-01-29T01:08:25.873Z,86.85
2023-01-29T01:11:04.346Z,87.18
2023-01-29T01:13:35.059Z,87.10
2023-01-29T01:16:10.904Z,88.99
2023-01-29T01:18:41.381Z,88.83
2023-01-29T01:21:11.870Z,88.84
2023-01-29T01:23:43.456Z,87.11
2023-01-29T01:26:14.017Z,85.74
2023-01-29T01:28:44.281Z,88.79
2023-01-29T01:31:15.776Z,88.38
2023-01-29T01:33:46.664Z,86.97
2023-01-29T01:36:17.702Z,85.78
2023-01-29T01:38:49.875Z,87.09
2023-01-29T01:41:21.995Z,86.84
2023-01-29T01:43:53.750Z,90.11
2023-01-29T01:46:24.327Z,88.12
2023-01-29T01:48:57.087Z,88.75
2023-01-29T01:51:29.707Z,85.99
2023-01-29T01:54:05.087Z,90.10
2023-01-29T01:56:41.247Z,88.56
2023-01-29T01:59:14.587Z,86.27
2023-01-29T02:01:48.093Z,86.82
2023-01-29T02:04:38.093Z,90.19
2023-01-29T02:07:28.498Z,87.77
2023-01-29T02:10:06.189Z,88.93
2023-01-29T02:12:36.510Z,85.60
2023-01-29T02:15:07.708Z,88.05
2023-01-29T02:17:37.770Z,89.99
2023-01-29T02:20:15.839Z,85.40
2023-01-29T02:23:28.079Z,87.85
2023-01-29T02:26:22.769Z,89.12
2023-01-29T02:28:58.334Z,86.92
2023-01-29T02:31:33.471Z,91.82
2023-01-29T02:34:10.804Z,87.01
2023-01-29T02:36:47.403Z,87.46
2023-01-29T02:39:26.190Z,87.27
2023-01-29T02:42:06.438Z,89.19
2023-01-29T02:44:42.505Z,91.01
2023-01-29T02:47:17.013Z,93.56
2023-01-29T02:49:50.866Z,91.79
2023-01-29T02:52:23.840Z,89.34
2023-01-29T02:54:57.293Z,87.18
2023-01-29T02:57:31.080Z,86.07
2023-01-29T03:00:05.299Z,85.62
2023-01-29T03:02:39.626Z,86.86
2023-01-29T03:05:12.920Z,86.04
2023-01-29T03:07:46.669Z,87.36
2023-01-29T03:10:20.683Z,86.98
2023-01-29T03:13:02.610Z,84.44
2023-01-29T03:15:42.536Z,90.13
2023-01-29T03:18:16.162Z,85.81
2023-01-29T03:20:49.664Z,92.33
2023-01-29T03:23:27.451Z,93.12
2023-01-29T03:26:16.881Z,87.71
2023-01-29T03:29:05.084Z,88.16
2023-01-29T03:31:53.861Z,89.84
2023-01-29T03:34:34.951Z,89.14
2023-01-29T03:37:09.675Z,91.29
2023-01-29T03:39:40.015Z,90.16
2023-01-29T03:42:18.489Z,85.46
2023-01-29T03:44:56.640Z,84.85
2023-01-29T03:47:37.898Z,87.01
2023-01-29T03:50:12.038Z,89.50
2023-01-29T03:52:47.398Z,87.31
2023-01-29T03:55:19.552Z,88.42
2023-01-29T03:57:56.092Z,89.87
2023-01-29T04:00:30.522Z,88.65
2023-01-29T04:03:08.118Z,84.76
2023-01-29T04:05:44.733Z,85.21
2023-01-29T04:08:21.609Z,85.99
2023-01-29T04:10:53.308Z,84.23
2023-01-29T04:13:22.918Z,86.88
2023-01-29T04:15:58.074Z,89.06
2023-01-29T04:18:30.978Z,86.49
2023-01-29T04:21:01.043Z,87.01
2023-01-29T04:23:31.854Z,86.20
2023-01-29T04:26:34.974Z,86.39
2023-01-29T04:29:30.514Z,89.24
2023-01-29T04:32:06.793Z,88.18
2023-01-29T04:34:49.460Z,86.19
2023-01-29T04:37:28.341Z,86.46
2023-01-29T04:40:01.924Z,87.32
2023-01-29T04:42:36.596Z,89.33
2023-01-29T04:45:12.319Z,89.26
2023-01-29T04:47:48.253Z,86.87
2023-01-29T04:50:23.359Z,85.99
2023-01-29T04:52:58.145Z,84.15
2023-01-29T04:55:36.198Z,85.86
2023-01-29T04:58:10.477Z,89.47
2023-01-29T05:00:43.625Z,85.93
2023-01-29T05:03:15.680Z,86.06
2023-01-29T05:05:48.582Z,85.46
2023-01-29T05:08:21.349Z,83.50
2023-01-29T05:10:53.527Z,85.35
2023-01-29T05:13:24.894Z,88.40
2023-01-29T05:15:58.832Z,89.31
2023-01-29T05:18:29.724Z,87.40
2023-01-29T05:21:06.305Z,85.96
2023-01-29T05:23:35.864Z,83.96
2023-01-29T05:26:06.476Z,82.96
2023-01-29T05:28:35.416Z,85.88
2023-01-29T05:31:05.218Z,85.72
2023-01-29T05:33:34.834Z,83.23
2023-01-29T05:36:07.513Z,85.47
2023-01-29T05:38:37.927Z,82.36
2023-01-29T05:41:08.313Z,84.26
2023-01-29T05:43:38.374Z,83.15
2023-01-29T05:46:08.144Z,83.81
2023-01-29T05:48:38.281Z,82.87
2023-01-29T05:51:09.771Z,82.32
2023-01-29T05:53:39.932Z,85.28
2023-01-29T05:56:11.118Z,85.65
2023-01-29T05:58:41.695Z,85.77
2023-01-29T06:01:13.813Z,85.06
2023-01-29T06:03:43.949Z,85.62
2023-01-29T06:06:16.588Z,86.13
2023-01-29T06:08:47.075Z,83.48
2023-01-29T06:11:18.655Z,84.43
2023-01-29T06:13:49.505Z,84.08
2023-01-29T06:16:19.608Z,82.99
2023-01-29T06:18:50.160Z,85.39
2023-01-29T06:21:24.987Z,81.99
2023-01-29T06:23:55.532Z,83.05
2023-01-29T06:26:26.066Z,83.35
2023-01-29T06:28:56.552Z,84.89
2023-01-29T06:31:38.529Z,82.63
2023-01-29T06:34:09.910Z,80.45
2023-01-29T06:36:42.116Z,79.76
2023-01-29T06:39:12.875Z,80.12
2023-01-29T06:41:43.081Z,81.62
2023-01-29T06:44:13.324Z,79.93
2023-01-29T06:46:43.794Z,80.05
2023-01-29T06:49:13.788Z,80.66
2023-01-29T06:51:45.448Z,80.92
2023-01-29T06:54:15.920Z,81.54
2023-01-29T06:56:46.034Z,78.80
2023-01-29T06:59:16.841Z,82.50
2023-01-29T07:01:47.489Z,82.88
2023-01-29T07:04:18.379Z,82.20
2023-01-29T07:06:50.317Z,80.92
2023-01-29T07:09:20.646Z,81.09
2023-01-29T07:11:50.913Z,82.65
2023-01-29T07:14:21.708Z,81.64
2023-01-29T07:16:52.035Z,80.27
2023-01-29T07:19:22.270Z,78.66
2023-01-29T07:21:54.110Z,80.16
2023-01-29T07:24:25.288Z,78.20
2023-01-29T07:26:56.232Z,81.12
2023-01-29T07:29:26.494Z,81.41
2023-01-29T07:31:56.893Z,80.29
2023-01-29T07:34:27.470Z,78.71
2023-01-29T07:37:00.684Z,81.34
2023-01-29T07:39:31.172Z,79.80
2023-01-29T07:42:02.643Z,80.45
2023-01-29T07:44:32.465Z,83.11
2023-01-29T07:47:02.088Z,83.08
2023-01-29T07:49:32.672Z,81.32
2023-01-29T07:52:04.434Z,82.33
2023-01-29T07:54:34.416Z,85.37
2023-01-29T07:57:04.590Z,86.43
2023-01-29T07:59:35.787Z,84.91
2023-01-29T08:02:06.383Z,87.02
2023-01-29T08:04:36.753Z,84.41
2023-01-29T08:07:10.119Z,83.89
2023-01-29T08:09:40.751Z,85.54
2023-01-29T08:12:10.535Z,86.00
2023-01-29T08:14:40.826Z,84.28
2023-01-29T08:17:11.024Z,83.50
2023-01-29T08:19:41.100Z,86.56
2023-01-29T08:22:12.728Z,85.13
2023-01-29T08:24:53.696Z,84.16
2023-01-29T08:27:29.678Z,87.29
2023-01-29T08:29:59.628Z,85.23
2023-01-29T08:32:29.617Z,83.47
2023-01-29T08:34:59.575Z,81.92
2023-01-29T08:37:31.454Z,86.37
2023-01-29T08:40:01.872Z,88.14
2023-01-29T08:42:32.594Z,93.53
2023-01-29T08:45:02.405Z,90.76
2023-01-29T08:47:32.343Z,97.06
2023-01-29T08:50:02.973Z,88.77
2023-01-29T08:52:34.681Z,89.70
2023-01-29T08:55:04.843Z,88.41
2023-01-29T08:57:35.042Z,91.04
2023-01-29T09:00:05.659Z,86.03
2023-01-29T09:02:35.715Z,93.48
2023-01-29T09:05:07.628Z,90.05
2023-01-29T09:07:39.467Z,89.58
2023-01-29T09:10:10.818Z,89.18
2023-01-29T09:12:40.993Z,89.36
2023-01-29T09:15:13.192Z,84.24
2023-01-29T09:17:43.884Z,87.58
2023-01-29T09:20:14.815Z,88.94
2023-01-29T09:22:47.130Z,86.97
2023-01-29T09:25:17.586Z,84.86
2023-01-29T09:27:47.621Z,82.67
2023-01-29T09:30:18.486Z,86.92
2023-01-29T09:32:55.720Z,86.17
2023-01-29T09:35:25.828Z,85.32
2023-01-29T09:37:57.674Z,84.89
2023-01-29T09:40:34.600Z,84.65
2023-01-29T09:43:08.669Z,81.33
2023-01-29T09:45:38.918Z,85.71
2023-01-29T09:48:13.711Z,85.09
2023-01-29T09:50:46.115Z,87.47
2023-01-29T09:53:22.036Z,86.66
2023-01-29T09:55:55.163Z,84.82
2023-01-29T09:58:29.358Z,86.64
2023-01-29T10:01:07.125Z,83.40
2023-01-29T10:03:52.803Z,82.96
2023-01-29T10:06:36.528Z,84.91
2023-01-29T10:09:43.720Z,80.55
2023-01-29T10:12:39.510Z,80.39
2023-01-29T10:15:21.473Z,84.74
2023-01-29T10:18:07.554Z,83.33
2023-01-29T10:20:49.350Z,84.14
2023-01-29T10:23:24.310Z,83.44
2023-01-29T10:25:56.688Z,84.71
2023-01-29T10:28:31.615Z,83.99
2023-01-29T10:31:04.762Z,84.97
2023-01-29T10:33:49.659Z,81.96
2023-01-29T10:36:34.422Z,84.39
2023-01-29T10:39:04.736Z,85.36
2023-01-29T10:41:57.373Z,88.85
2023-01-29T10:44:40.074Z,86.98
2023-01-29T10:47:34.872Z,86.34
2023-01-29T10:50:26.957Z,85.65
2023-01-29T10:53:11.204Z,85.57
2023-01-29T10:55:49.494Z,85.52
2023-01-29T10:58:28.110Z,82.27
2023-01-29T11:00:59.013Z,83.28
2023-01-29T11:03:30.375Z,86.20
2023-01-29T11:06:14.805Z,86.55
2023-01-29T11:08:48.376Z,84.05
2023-01-29T11:11:22.213Z,83.40
2023-01-29T11:13:58.331Z,87.29
2023-01-29T11:16:28.789Z,87.50
2023-01-29T11:19:01.424Z,84.48
2023-01-29T11:21:31.757Z,85.52
2023-01-29T11:24:09.969Z,86.14
2023-01-29T11:26:42.410Z,85.80
2023-01-29T11:29:41.178Z,88.65
2023-01-29T11:32:15.536Z,85.81
2023-01-29T11:35:06.496Z,86.01
2023-01-29T11:37:38.503Z,84.58
2023-01-29T11:40:33.573Z,84.98
2023-01-29T11:43:15.339Z,88.08
2023-01-29T11:45:47.416Z,87.42
2023-01-29T11:48:19.896Z,88.91
2023-01-29T11:50:54.817Z,90.04
2023-01-29T11:53:34.159Z,91.39
2023-01-29T11:56:07.018Z,88.47
2023-01-29T11:58:38.764Z,88.97
2023-01-29T12:01:10.128Z,85.12
2023-01-29T12:03:44.060Z,83.08
2023-01-29T12:06:20.694Z,81.14
2023-01-29T12:08:57.595Z,86.69
2023-01-29T12:11:31.799Z,86.25
2023-01-29T12:14:03.921Z,86.73
2023-01-29T12:16:40.215Z,84.35
2023-01-29T12:19:16.055Z,84.88
2023-01-29T12:21:49.514Z,83.49
2023-01-29T12:24:33.055Z,83.92
2023-01-29T12:27:09.785Z,85.09
2023-01-29T12:29:45.395Z,85.98
2023-01-29T12:32:29.307Z,82.36
2023-01-29T12:35:04.253Z,83.85
2023-01-29T12:37:40.192Z,83.45
2023-01-29T12:40:15.726Z,80.24
2023-01-29T12:42:49.886Z,81.37
2023-01-29T12:45:22.414Z,81.54
2023-01-29T12:47:56.064Z,84.36
2023-01-29T12:50:31.757Z,81.08
2023-01-29T12:53:03.944Z,79.73
2023-01-29T12:55:39.152Z,84.85
2023-01-29T12:58:14.529Z,84.17
2023-01-29T13:00:48.279Z,79.86
2023-01-29T13:03:23.732Z,81.93
2023-01-29T13:05:56.820Z,78.35
2023-01-29T13:08:31.348Z,80.25
2023-01-29T13:11:04.480Z,81.73
2023-01-29T13:13:36.688Z,74.85
2023-01-29T13:16:09.517Z,76.09
2023-01-29T13:18:45.115Z,78.06
2023-01-29T13:21:18.048Z,80.05
2023-01-29T13:23:50.279Z,78.71
2023-01-29T13:26:21.758Z,79.91
2023-01-29T13:28:53.253Z,78.53
2023-01-29T13:31:32.032Z,78.72
2023-01-29T13:34:09.789Z,79.80
2023-01-29T13:36:43.058Z,78.62
2023-01-29T13:39:22.163Z,84.12
2023-01-29T13:41:53.213Z,80.49
2023-01-29T13:44:27.148Z,80.86
2023-01-29T13:47:00.118Z,79.20
2023-01-29T13:49:39.869Z,78.77
2023-01-29T13:52:36.277Z,76.87
2023-01-29T13:55:09.317Z,75.57
2023-01-29T13:57:55.987Z,79.47
2023-01-29T14:00:53.821Z,80.72
2023-01-29T14:04:06.037Z,82.96
2023-01-29T14:06:45.349Z,84.64
2023-01-29T14:09:58.597Z,81.02
2023-01-29T14:12:50.204Z,82.20
2023-01-29T14:15:27.415Z,81.77
2023-01-29T14:18:06.998Z,82.17
2023-01-29T14:20:48.564Z,79.30
2023-01-29T14:23:35.929Z,79.41
2023-01-29T14:26:07.230Z,81.72
2023-01-29T14:28:38.415Z,77.39
2023-01-29T14:31:09.181Z,77.84
2023-01-29T14:33:43.492Z,79.09
2023-01-29T14:36:16.296Z,78.27
2023-01-29T14:38:52.744Z,79.86
2023-01-29T14:41:28.840Z,79.11
2023-01-29T14:44:35.025Z,74.08
2023-01-29T14:47:06.471Z,78.72
2023-01-29T14:49:54.503Z,77.35
2023-01-29T14:52:30.088Z,78.74
2023-01-29T14:55:05.673Z,77.62
2023-01-29T14:57:36.446Z,77.18
2023-01-29T15:00:10.011Z,76.66
2023-01-29T15:02:42.989Z,77.57
2023-01-29T15:05:15.953Z,79.12
2023-01-29T15:07:51.099Z,80.24
2023-01-29T15:10:27.080Z,78.08
2023-01-29T15:13:02.921Z,74.92
2023-01-29T15:15:37.474Z,77.64
2023-01-29T15:18:11.308Z,78.30
2023-01-29T15:20:43.003Z,79.12
2023-01-29T15:23:31.718Z,76.54
2023-01-29T15:26:06.989Z,79.66
2023-01-29T15:28:38.629Z,75.10
2023-01-29T15:31:13.540Z,76.60
2023-01-29T15:33:46.815Z,74.22
2023-01-29T15:36:21.700Z,77.87
2023-01-29T15:39:07.608Z,77.43
2023-01-29T15:41:40.269Z,76.33
2023-01-29T15:44:17.432Z,77.66
2023-01-29T15:46:50.307Z,76.11
2023-01-29T15:49:26.361Z,81.26
2023-01-29T15:52:05.311Z,78.75
2023-01-29T15:54:36.942Z,79.11
2023-01-29T15:57:21.594Z,76.01
2023-01-29T15:59:52.892Z,75.76
2023-01-29T16:02:32.145Z,73.37
2023-01-29T16:05:02.542Z,73.00
2023-01-29T16:07:33.248Z,75.24
2023-01-29T16:10:04.027Z,76.97
2023-01-29T16:12:38.273Z,76.94
2023-01-29T16:15:15.534Z,76.79
2023-01-29T16:17:47.269Z,76.92
2023-01-29T16:20:38.832Z,76.61
2023-01-29T16:23:11.080Z,76.79
2023-01-29T16:25:42.192Z,76.74
2023-01-29T16:28:14.474Z,75.84
2023-01-29T16:30:44.416Z,76.82
2023-01-29T16:33:17.793Z,74.79
2023-01-29T16:35:53.754Z,76.81
2023-01-29T16:38:30.006Z,77.47
2023-01-29T16:41:16.432Z,77.71
2023-01-29T16:43:54.640Z,76.74
2023-01-29T16:46:34.870Z,74.49
2023-01-29T16:49:06.548Z,77.15
2023-01-29T16:51:40.361Z,78.37
2023-01-29T16:54:16.245Z,78.72
2023-01-29T16:56:47.256Z,79.38
2023-01-29T16:59:23.479Z,74.51
2023-01-29T17:01:53.860Z,77.74
2023-01-29T17:04:24.312Z,77.08
2023-01-29T17:06:58.650Z,73.82
2023-01-29T17:09:32.209Z,73.46
2023-01-29T17:12:04.505Z,76.35
2023-01-29T17:14:38.984Z,74.88
2023-01-29T17:17:16.110Z,74.33
2023-01-29T17:19:46.604Z,74.00
2023-01-29T17:22:16.908Z,76.85
2023-01-29T17:24:49.322Z,76.96
2023-01-29T17:27:21.790Z,73.79
2023-01-29T17:29:53.693Z,75.16
2023-01-29T17:32:23.990Z,73.33
2023-01-29T17:34:54.531Z,72.97
2023-01-29T17:37:25.022Z,73.36
2023-01-29T17:39:56.880Z,75.29
2023-01-29T17:42:29.027Z,75.23
2023-01-29T17:45:00.588Z,74.81
2023-01-29T17:47:30.676Z,74.94
2023-01-29T17:50:01.131Z,78.17
2023-01-29T17:52:32.564Z,74.49
2023-01-29T17:55:02.725Z,73.96
2023-01-29T17:57:33.503Z,75.11
2023-01-29T18:00:10.235Z,72.50
2023-01-29T18:02:40.768Z,74.41
2023-01-29T18:05:11.361Z,73.11
2023-01-29T18:07:43.303Z,74.50
2023-01-29T18:10:17.952Z,75.58
2023-01-29T18:12:48.473Z,77.84
2023-01-29T18:15:20.789Z,79.70
2023-01-29T18:17:53.068Z,78.99
2023-01-29T18:20:25.857Z,77.19
2023-01-29T18:22:57.487Z,75.46
2023-01-29T18:25:27.410Z,75.36
2023-01-29T18:27:57.662Z,74.45
2023-01-29T18:30:29.399Z,75.38
2023-01-29T18:33:00.039Z,74.87
2023-01-29T18:35:31.162Z,76.83
2023-01-29T18:38:02.216Z,75.76
2023-01-29T18:40:32.917Z,78.30
2023-01-29T18:43:04.624Z,78.78
2023-01-29T18:45:37.057Z,78.05
2023-01-29T18:48:07.983Z,75.80
2023-01-29T18:50:40.508Z,76.00
2023-01-29T18:53:11.042Z,75.60
2023-01-29T18:55:41.084Z,74.31
2023-01-29T18:58:27.019Z,74.94
2023-01-29T19:01:07.216Z,72.20
2023-01-29T19:03:39.580Z,74.64
2023-01-29T19:06:11.482Z,76.61
2023-01-29T19:08:43.205Z,77.19
2023-01-29T19:11:13.550Z,75.18
2023-01-29T19:13:43.600Z,74.33
2023-01-29T19:16:15.780Z,74.70
2023-01-29T19:18:45.879Z,76.12
2023-01-29T19:21:17.992Z,75.02
2023-01-29T19:23:48.117Z,74.33
2023-01-29T19:26:18.627Z,76.65
2023-01-29T19:28:48.901Z,74.78
2023-01-29T19:31:21.043Z,76.08
2023-01-29T19:33:52.146Z,73.07
2023-01-29T19:36:22.258Z,75.23
2023-01-29T19:38:52.735Z,73.88
2023-01-29T19:41:23.889Z,75.04
2023-01-29T19:43:54.768Z,74.02
2023-01-29T19:46:29.705Z,74.71
2023-01-29T19:49:00.128Z,74.46
2023-01-29T19:51:31.144Z,75.07
2023-01-29T19:54:01.554Z,75.02
2023-01-29T19:56:31.889Z,75.70
2023-01-29T19:59:02.429Z,74.30
2023-01-29T20:01:34.947Z,73.21
2023-01-29T20:04:06.344Z,73.75
2023-01-29T20:06:37.111Z,73.01
2023-01-29T20:09:07.471Z,72.58
2023-01-29T20:11:38.165Z,75.13
2023-01-29T20:14:08.737Z,74.97
2023-01-29T20:16:41.399Z,73.63
2023-01-29T20:19:14.413Z,74.59
2023-01-29T20:21:47.243Z,72.98
2023-01-29T20:24:18.476Z,73.22
2023-01-29T20:26:48.623Z,73.66
2023-01-29T20:29:19.320Z,69.52
2023-01-29T20:31:51.675Z,72.35
2023-01-29T20:34:21.897Z,74.96
2023-01-29T20:36:52.095Z,75.49
2023-01-29T20:39:22.669Z,77.23
2023-01-29T20:41:53.073Z,75.60
2023-01-29T20:44:23.609Z,76.75
2023-01-29T20:46:55.138Z,75.68
2023-01-29T20:49:24.988Z,76.24
2023-01-29T20:51:54.941Z,74.22
2023-01-29T20:54:25.772Z,76.76
2023-01-29T20:56:56.322Z,75.61
2023-01-29T20:59:29.451Z,75.70
2023-01-29T21:02:02.707Z,73.46
2023-01-29T21:04:32.784Z,71.64
2023-01-29T21:07:04.416Z,73.75
2023-01-29T21:09:34.645Z,72.35
2023-01-29T21:12:07.519Z,74.24
2023-01-29T21:14:37.813Z,75.08
2023-01-29T21:17:09.489Z,72.40
2023-01-29T21:19:39.754Z,73.79
2023-01-29T21:22:10.152Z,74.58
2023-01-29T21:24:40.583Z,74.88
2023-01-29T21:27:11.253Z,74.66
2023-01-29T21:29:41.908Z,73.13
2023-01-29T21:32:15.188Z,74.82
2023-01-29T21:34:45.618Z,75.79
2023-01-29T21:37:16.437Z,74.74
2023-01-29T21:39:46.514Z,75.06
2023-01-29T21:42:34.044Z,74.69
2023-01-29T21:45:04.567Z,73.91
2023-01-29T21:47:37.391Z,75.92
2023-01-29T21:50:08.748Z,76.15
2023-01-29T21:52:41.737Z,75.23
2023-01-29T21:55:13.802Z,73.30
2023-01-29T21:57:46.969Z,74.56
2023-01-29T22:00:20.112Z,75.41
2023-01-29T22:02:53.719Z,74.39
2023-01-29T22:05:24.303Z,72.99
2023-01-29T22:07:54.779Z,74.23
2023-01-29T22:10:25.234Z,77.26
2023-01-29T22:12:58.272Z,78.25
2023-01-29T22:15:28.847Z,77.69
2023-01-29T22:18:00.496Z,74.88
2023-01-29T22:20:31.533Z,78.38
2023-01-29T22:23:01.681Z,76.41
2023-01-29T22:25:32.372Z,76.01
2023-01-29T22:28:02.702Z,76.72
2023-01-29T22:30:33.217Z,75.18
2023-01-29T22:33:05.498Z,74.94
2023-01-29T22:35:35.989Z,76.06
2023-01-29T22:38:06.769Z,76.62
2023-01-29T22:40:36.657Z,78.92
2023-01-29T22:43:07.226Z,77.72
2023-01-29T22:45:41.678Z,75.91
2023-01-29T22:48:13.760Z,74.04
2023-01-29T22:50:54.020Z,76.07
2023-01-29T22:53:26.172Z,78.23
2023-01-29T22:55:56.493Z,75.27
2023-01-29T22:58:26.694Z,76.46
2023-01-29T23:00:56.742Z,75.67
2023-01-29T23:03:29.066Z,74.60
2023-01-29T23:05:58.525Z,74.44
2023-01-29T23:08:29.235Z,76.51
2023-01-29T23:11:14.486Z,73.81
2023-01-29T23:13:45.683Z,72.89
2023-01-29T23:16:17.268Z,75.38
2023-01-29T23:18:52.271Z,77.79
2023-01-29T23:21:25.378Z,75.02
2023-01-29T23:23:58.483Z,74.80
2023-01-29T23:26:47.389Z,73.22
2023-01-29T23:29:17.762Z,74.93
2023-01-29T23:31:48.490Z,74.00
2023-01-29T23:34:20.574Z,75.39
2023-01-29T23:36:50.945Z,75.82
2023-01-29T23:39:22.257Z,75.50
2023-01-29T23:41:52.703Z,76.90
2023-01-29T23:44:22.931Z,76.13
2023-01-29T23:46:53.402Z,74.27
2023-01-29T23:49:25.020Z,74.95
2023-01-29T23:51:55.081Z,76.47
2023-01-29T23:54:25.393Z,76.64
2023-01-29T23:56:55.694Z,78.51
2023-01-29T23:59:28.190Z,76.03
